createdAt,value
2017-08-22T03:31:29.627Z,56.60
2017-08-22T03:33:57.270Z,56.40
2017-08-22T03:36:25.011Z,56.30
2017-08-22T03:38:52.861Z,56.10
2017-08-22T03:41:20.515Z,55.90
2017-08-22T03:43:48.151Z,56.10
2017-08-22T03:46:16.542Z,56.30
2017-08-22T03:48:44.176Z,56.30
2017-08-22T03:51:11.832Z,56.30
2017-08-22T03:53:39.852Z,56.00
2017-08-22T03:56:07.510Z,56.00
2017-08-22T03:58:35.278Z,55.70
2017-08-22T04:01:04.136Z,56.30
2017-08-22T04:03:31.796Z,56.80
2017-08-22T04:05:59.474Z,56.60
2017-08-22T04:08:27.141Z,56.50
2017-08-22T04:10:54.809Z,56.30
2017-08-22T04:13:22.489Z,56.30
2017-08-22T04:15:50.138Z,56.10
2017-08-22T04:18:17.800Z,56.10
2017-08-22T04:20:45.449Z,56.00
2017-08-22T04:23:13.121Z,56.50
2017-08-22T04:25:40.753Z,56.40
2017-08-22T04:28:08.821Z,56.50
2017-08-22T04:30:36.603Z,56.60
2017-08-22T04:33:04.249Z,56.70
2017-08-22T04:35:31.927Z,57.00
2017-08-22T04:37:59.564Z,56.60
2017-08-22T04:40:27.221Z,56.30
2017-08-22T04:42:54.857Z,56.70
2017-08-22T04:45:22.867Z,56.80
2017-08-22T04:47:50.517Z,57.10
2017-08-22T04:50:18.169Z,57.20
2017-08-22T04:52:45.815Z,57.20
2017-08-22T04:55:13.436Z,57.00
2017-08-22T04:57:41.081Z,56.90
2017-08-22T05:00:08.732Z,56.20
2017-08-22T05:02:36.465Z,56.30
2017-08-22T05:05:04.106Z,55.70
2017-08-22T05:07:32.118Z,55.40
2017-08-22T05:10:00.138Z,56.20
2017-08-22T05:12:27.844Z,56.40
2017-08-22T05:14:55.492Z,56.20
2017-08-22T05:17:23.442Z,55.90
2017-08-22T05:19:51.435Z,54.80
2017-08-22T05:22:19.101Z,53.80
2017-08-22T05:24:47.141Z,54.10
2017-08-22T05:27:14.808Z,54.80
2017-08-22T05:29:42.509Z,55.20
2017-08-22T05:32:10.179Z,55.60
2017-08-22T05:34:37.841Z,55.40
2017-08-22T05:37:05.530Z,54.70
2017-08-22T05:39:33.171Z,53.80
2017-08-22T05:42:00.896Z,53.70
2017-08-22T05:44:28.612Z,54.40
2017-08-22T05:46:56.663Z,53.60
2017-08-22T05:49:24.324Z,53.90
2017-08-22T05:51:51.992Z,54.60
2017-08-22T05:54:19.687Z,55.30
2017-08-22T05:56:47.349Z,55.10
2017-08-22T05:59:15.026Z,55.50
2017-08-22T06:01:42.679Z,55.80
2017-08-22T06:04:10.356Z,54.90
2017-08-22T06:06:38.018Z,55.70
2017-08-22T06:09:05.656Z,54.40
2017-08-22T06:11:33.340Z,54.90
2017-08-22T06:14:00.969Z,55.30
2017-08-22T06:16:28.652Z,55.40
2017-08-22T06:18:56.314Z,55.60
2017-08-22T06:21:23.986Z,54.00
2017-08-22T06:23:51.654Z,53.10
2017-08-22T06:26:19.678Z,53.10
2017-08-22T06:28:47.375Z,52.70
2017-08-22T06:31:15.028Z,52.70
2017-08-22T06:33:48.002Z,52.90
2017-08-22T06:36:16.237Z,52.30
2017-08-22T06:38:43.935Z,52.80
2017-08-22T06:41:11.684Z,53.30
2017-08-22T06:43:39.333Z,52.90
2017-08-22T06:46:06.998Z,52.30
2017-08-22T06:48:35.021Z,52.40
2017-08-22T06:51:02.676Z,52.40
2017-08-22T06:53:30.325Z,52.20
2017-08-22T06:55:57.987Z,52.20
2017-08-22T06:58:25.654Z,51.80
2017-08-22T07:00:53.368Z,50.80
2017-08-22T07:03:21.039Z,50.90
2017-08-22T07:05:48.697Z,51.20
2017-08-22T07:08:16.333Z,51.00
2017-08-22T07:10:44.000Z,50.10
2017-08-22T07:13:11.678Z,49.20
2017-08-22T07:15:39.725Z,49.40
2017-08-22T07:18:07.409Z,47.80
2017-08-22T07:20:35.054Z,46.30
2017-08-22T07:23:03.075Z,45.80
2017-08-22T07:25:30.741Z,46.60
2017-08-22T07:27:58.400Z,47.10
2017-08-22T07:30:26.389Z,46.00
2017-08-22T07:32:54.049Z,46.30
2017-08-22T07:35:21.710Z,45.90
2017-08-22T07:37:49.856Z,46.10
2017-08-22T07:40:17.508Z,46.10
2017-08-22T07:42:45.168Z,45.90
2017-08-22T07:45:12.844Z,45.30
2017-08-22T07:47:40.630Z,45.00
2017-08-22T07:50:08.434Z,43.60
2017-08-22T07:52:36.102Z,43.40
2017-08-22T07:55:04.108Z,43.30
2017-08-22T07:57:31.756Z,42.70
2017-08-22T07:59:59.417Z,42.20
2017-08-22T08:02:27.114Z,42.40
2017-08-22T08:04:54.762Z,42.10
2017-08-22T08:07:22.435Z,42.80
2017-08-22T08:09:50.098Z,42.90
2017-08-22T08:12:17.757Z,40.80
2017-08-22T08:14:45.394Z,40.50
2017-08-22T08:17:13.068Z,41.10
2017-08-22T08:19:40.717Z,40.90
2017-08-22T08:22:08.778Z,40.80
2017-08-22T08:24:36.414Z,40.60
2017-08-22T08:27:04.039Z,40.20
2017-08-22T08:29:31.696Z,37.80
2017-08-22T08:31:59.351Z,35.70
2017-08-22T08:34:27.040Z,36.90
2017-08-22T08:36:54.689Z,36.00
2017-08-22T08:39:22.347Z,35.40
2017-08-22T08:41:49.983Z,35.40
2017-08-22T08:44:18.051Z,33.70
2017-08-22T08:46:45.694Z,33.30
2017-08-22T08:49:13.348Z,31.60
2017-08-22T08:51:41.744Z,32.50
2017-08-22T08:54:09.503Z,29.60
2017-08-22T08:56:37.917Z,29.10
2017-08-22T08:59:05.549Z,29.10
2017-08-22T09:01:33.641Z,28.50
2017-08-22T09:04:01.299Z,26.80
2017-08-22T09:06:28.938Z,25.90
2017-08-22T09:08:56.583Z,26.10
2017-08-22T09:11:24.232Z,24.80
2017-08-22T09:13:51.917Z,24.30
2017-08-22T09:16:19.571Z,24.20
2017-08-22T09:18:47.241Z,23.50
2017-08-22T09:21:14.892Z,21.90
2017-08-22T09:23:42.888Z,21.90
2017-08-22T09:26:10.529Z,20.60
2017-08-22T09:28:38.170Z,19.70
2017-08-22T09:31:05.853Z,20.00
2017-08-22T09:33:33.550Z,19.50
2017-08-22T09:36:01.236Z,19.10
2017-08-22T09:38:29.270Z,19.80
2017-08-22T09:40:57.336Z,18.50
2017-08-22T09:43:24.973Z,20.50
2017-08-22T09:45:52.619Z,21.60
2017-08-22T09:48:20.277Z,23.80
2017-08-22T09:50:47.917Z,23.30
2017-08-22T09:53:15.620Z,22.10
2017-08-22T09:55:43.274Z,20.90
2017-08-22T09:58:10.924Z,22.00
2017-08-22T10:00:38.643Z,21.30
2017-08-22T10:03:06.296Z,20.30
2017-08-22T10:05:33.960Z,18.60
2017-08-22T10:08:01.638Z,17.60
2017-08-22T10:10:29.311Z,17.10
2017-08-22T10:12:56.962Z,16.30
2017-08-22T10:15:24.647Z,16.70
2017-08-22T10:17:52.285Z,19.40
2017-08-22T10:20:20.324Z,21.80
2017-08-22T10:22:47.967Z,23.40
2017-08-22T10:25:15.629Z,24.30
2017-08-22T10:27:43.250Z,25.00
2017-08-22T10:30:10.896Z,25.80
2017-08-22T10:32:38.562Z,26.10
2017-08-22T10:35:06.202Z,26.90
2017-08-22T10:37:33.863Z,27.10
2017-08-22T10:40:01.522Z,28.20
2017-08-22T10:42:29.168Z,27.80
2017-08-22T10:44:56.811Z,26.70
2017-08-22T10:47:24.464Z,24.40
2017-08-22T10:49:52.136Z,21.70
2017-08-22T10:52:19.779Z,19.70
2017-08-22T10:54:47.468Z,18.80
2017-08-22T10:57:15.114Z,17.90
2017-08-22T10:59:43.125Z,17.30
2017-08-22T11:02:10.770Z,18.00
2017-08-22T11:04:38.544Z,19.10
2017-08-22T11:07:06.201Z,18.50
2017-08-22T11:09:33.832Z,16.60
2017-08-22T11:12:01.536Z,16.30
2017-08-22T11:14:30.150Z,15.10
2017-08-22T11:16:57.801Z,16.20
2017-08-22T11:19:25.475Z,18.90
2017-08-22T11:21:53.136Z,21.00
2017-08-22T11:24:20.850Z,23.10
2017-08-22T11:26:48.485Z,23.70
2017-08-22T11:29:16.158Z,25.40
2017-08-22T11:31:43.816Z,26.00
2017-08-22T11:34:11.482Z,26.30
2017-08-22T11:36:39.131Z,24.60
2017-08-22T11:39:07.169Z,22.50
2017-08-22T11:41:34.845Z,20.40
2017-08-22T11:44:02.491Z,19.60
2017-08-22T11:46:30.174Z,21.40
2017-08-22T11:48:57.834Z,22.70
2017-08-22T11:51:25.494Z,23.50
2017-08-22T11:53:53.133Z,22.70
2017-08-22T11:56:20.780Z,22.60
2017-08-22T11:58:48.456Z,21.60
2017-08-22T12:01:16.123Z,19.90
2017-08-22T12:03:43.811Z,19.90
2017-08-22T12:06:11.455Z,20.80
2017-08-22T12:08:39.118Z,21.70
2017-08-22T12:11:06.785Z,23.20
2017-08-22T12:13:34.480Z,24.40
2017-08-22T12:16:02.131Z,25.50
2017-08-22T12:18:30.096Z,26.40
2017-08-22T12:20:57.726Z,26.20
2017-08-22T12:23:25.360Z,25.80
2017-08-22T12:25:53.004Z,25.30
2017-08-22T12:28:20.656Z,24.80
2017-08-22T12:30:48.344Z,25.80
2017-08-22T12:33:16.051Z,25.40
2017-08-22T12:35:43.707Z,24.90
2017-08-22T12:38:11.376Z,25.00
2017-08-22T12:40:39.374Z,24.90
2017-08-22T12:43:07.006Z,25.50
2017-08-22T12:45:34.640Z,26.40
2017-08-22T12:48:02.277Z,27.00
2017-08-22T12:50:29.928Z,27.80
2017-08-22T12:52:57.591Z,27.80
2017-08-22T12:55:25.239Z,28.80
2017-08-22T12:57:52.917Z,29.10
2017-08-22T13:00:20.570Z,28.00
2017-08-22T13:02:48.250Z,27.90
2017-08-22T13:05:15.905Z,28.00
2017-08-22T13:07:43.883Z,27.70
2017-08-22T13:10:11.539Z,28.20
2017-08-22T13:12:39.192Z,27.30
2017-08-22T13:15:06.876Z,27.30
2017-08-22T13:17:34.537Z,28.00
2017-08-22T13:20:02.225Z,27.70
2017-08-22T13:22:30.227Z,27.90
2017-08-22T13:24:57.889Z,27.10
2017-08-22T13:27:25.522Z,27.40
2017-08-22T13:29:53.205Z,27.50
2017-08-22T13:32:20.872Z,29.10
2017-08-22T13:34:48.902Z,29.30
2017-08-22T13:37:54.391Z,29.00
2017-08-22T13:40:22.409Z,27.40
2017-08-22T13:42:50.118Z,28.70
2017-08-22T13:45:17.787Z,28.50
2017-08-22T13:47:45.918Z,28.10
2017-08-22T13:50:13.801Z,29.00
2017-08-22T13:52:41.564Z,29.10
2017-08-22T13:55:09.556Z,29.90
2017-08-22T13:57:37.193Z,30.40
2017-08-22T14:00:04.857Z,29.90
2017-08-22T14:02:32.541Z,29.80
2017-08-22T14:05:00.204Z,29.40
2017-08-22T14:07:27.864Z,29.80
2017-08-22T14:09:55.677Z,29.70
2017-08-22T14:12:23.633Z,29.60
2017-08-22T14:14:51.284Z,29.80
2017-08-22T14:17:19.032Z,29.60
2017-08-22T14:19:46.720Z,30.00
2017-08-22T14:22:14.452Z,30.00
2017-08-22T14:24:42.322Z,30.00
2017-08-22T14:27:09.996Z,30.40
2017-08-22T14:29:37.656Z,30.00
2017-08-22T14:32:05.318Z,30.80
2017-08-22T14:34:33.323Z,31.00
2017-08-22T14:37:01.194Z,30.50
2017-08-22T14:39:28.850Z,30.80
2017-08-22T14:41:59.352Z,30.30
2017-08-22T14:44:27.667Z,30.00
2017-08-22T14:46:55.352Z,31.00
2017-08-22T14:49:23.133Z,32.50
2017-08-22T14:51:50.800Z,30.80
2017-08-22T14:54:18.435Z,30.80
2017-08-22T14:56:47.775Z,31.50
2017-08-22T14:59:21.454Z,32.10
2017-08-22T15:01:49.638Z,31.70
2017-08-22T15:04:18.816Z,31.70
2017-08-22T15:06:47.412Z,31.90
2017-08-22T15:09:15.070Z,31.80
2017-08-22T15:11:42.842Z,31.30
2017-08-22T15:14:10.560Z,31.60
2017-08-22T15:16:38.287Z,31.90
2017-08-22T15:19:05.992Z,31.30
2017-08-22T15:21:34.678Z,33.00
2017-08-22T15:24:02.790Z,33.00
2017-08-22T15:26:30.461Z,33.30
2017-08-22T15:28:58.877Z,33.20
2017-08-22T15:31:26.544Z,32.70
2017-08-22T15:33:54.220Z,32.50
2017-08-22T15:36:21.887Z,33.10
2017-08-22T15:38:50.425Z,33.80
2017-08-22T15:41:20.523Z,33.50
2017-08-22T15:43:48.241Z,33.20
2017-08-22T15:46:17.025Z,32.90
2017-08-22T15:48:44.683Z,32.90
2017-08-22T15:51:13.254Z,33.10
2017-08-22T15:53:43.474Z,33.50
2017-08-22T15:56:11.127Z,33.50
2017-08-22T15:58:38.897Z,32.40
2017-08-22T16:01:06.617Z,32.70
2017-08-22T16:03:35.414Z,33.40
2017-08-22T16:06:03.069Z,33.70
2017-08-22T16:08:30.725Z,33.70
2017-08-22T16:10:58.381Z,33.40
2017-08-22T16:13:26.449Z,33.40
2017-08-22T16:15:54.147Z,33.50
2017-08-22T16:18:21.789Z,34.10
2017-08-22T16:20:49.443Z,33.90
2017-08-22T16:23:17.093Z,33.40
2017-08-22T16:25:44.745Z,33.60
2017-08-22T16:28:12.461Z,33.80
2017-08-22T16:30:40.534Z,34.60
2017-08-22T16:33:08.191Z,34.30
2017-08-22T16:35:35.834Z,34.90
2017-08-22T16:38:03.587Z,34.90
2017-08-22T16:40:31.303Z,34.90
2017-08-22T16:42:58.961Z,34.50
2017-08-22T16:45:26.605Z,35.10
2017-08-22T16:47:54.311Z,34.10
2017-08-22T16:50:22.135Z,34.30
2017-08-22T16:52:50.267Z,34.50
2017-08-22T16:55:17.911Z,34.80
2017-08-22T16:57:45.558Z,35.00
2017-08-22T17:00:13.271Z,34.90
2017-08-22T17:02:40.915Z,35.20
2017-08-22T17:05:08.604Z,35.30
2017-08-22T17:07:36.290Z,35.20
2017-08-22T17:10:05.030Z,35.30
2017-08-22T17:12:32.711Z,35.60
2017-08-22T17:15:00.379Z,36.10
2017-08-22T17:17:28.578Z,36.10
2017-08-22T17:19:56.573Z,36.00
2017-08-22T17:22:25.813Z,36.00
2017-08-22T17:24:53.859Z,36.10
2017-08-22T17:27:21.908Z,36.50
2017-08-22T17:29:49.540Z,36.30
2017-08-22T17:32:17.235Z,36.30
2017-08-22T17:34:46.058Z,36.70
2017-08-22T17:37:13.758Z,36.60
2017-08-22T17:39:41.410Z,36.70
2017-08-22T17:42:09.420Z,36.70
2017-08-22T17:44:37.090Z,36.80
2017-08-22T17:47:04.769Z,37.10
2017-08-22T17:49:32.765Z,37.20
2017-08-22T17:52:00.422Z,37.30
2017-08-22T17:54:28.080Z,37.60
2017-08-22T17:56:56.109Z,37.60
2017-08-22T17:59:23.769Z,37.60
2017-08-22T18:01:51.438Z,38.10
2017-08-22T18:04:19.531Z,38.80
2017-08-22T18:06:47.430Z,39.40
2017-08-22T18:09:15.084Z,39.80
2017-08-22T18:11:43.327Z,40.20
2017-08-22T18:14:10.986Z,40.40
2017-08-22T18:16:38.633Z,40.60
2017-08-22T18:19:06.730Z,40.80
2017-08-22T18:21:34.397Z,40.90
2017-08-22T18:24:02.075Z,41.10
2017-08-22T18:26:30.097Z,41.40
2017-08-22T18:28:57.747Z,41.60
2017-08-22T18:31:25.482Z,41.80
2017-08-22T18:33:53.623Z,41.80
2017-08-22T18:36:21.345Z,41.80
2017-08-22T18:38:49.063Z,41.90
2017-08-22T18:41:17.108Z,42.20
2017-08-22T18:56:45.154Z,42.20
2017-08-22T18:59:12.819Z,45.60
2017-08-22T19:01:40.529Z,45.20
2017-08-22T19:04:08.225Z,44.90
2017-08-22T19:06:35.876Z,44.50
2017-08-22T19:09:03.535Z,44.20
2017-08-22T19:11:31.279Z,44.30
2017-08-22T19:13:59.007Z,44.40
2017-08-22T19:16:26.649Z,44.70
2017-08-22T19:18:55.102Z,44.90
2017-08-22T19:21:23.449Z,45.10
2017-08-22T19:23:51.423Z,45.30
2017-08-22T19:26:19.115Z,45.30
2017-08-22T19:28:47.252Z,45.40
2017-08-22T19:31:14.944Z,45.40
2017-08-22T19:33:42.608Z,45.80
2017-08-22T19:36:10.413Z,46.00
2017-08-22T19:38:38.773Z,46.20
2017-08-22T19:41:06.483Z,46.00
2017-08-22T19:43:34.135Z,46.10
2017-08-22T19:46:02.110Z,46.00
2017-08-22T19:48:29.794Z,46.20
2017-08-22T19:50:57.436Z,46.50
2017-08-22T19:53:25.103Z,46.70
2017-08-22T19:55:52.830Z,47.00
2017-08-22T19:58:20.515Z,47.00
2017-08-22T20:00:48.188Z,46.90
2017-08-22T20:03:16.226Z,47.00
2017-08-22T20:05:43.963Z,47.50
2017-08-22T20:08:11.590Z,48.10
2017-08-22T20:10:39.583Z,48.50
2017-08-22T20:13:07.245Z,48.60
2017-08-22T20:15:34.924Z,48.40
2017-08-22T20:18:02.563Z,48.60
2017-08-22T20:20:30.240Z,48.50
2017-08-22T20:22:57.906Z,48.50
2017-08-22T20:25:25.924Z,48.60
2017-08-22T20:27:53.558Z,48.40
2017-08-22T20:30:21.203Z,48.10
2017-08-22T20:32:48.872Z,48.20
2017-08-22T20:35:16.512Z,48.20
2017-08-22T20:37:44.180Z,48.20
2017-08-22T20:40:11.956Z,48.40
2017-08-22T20:42:39.835Z,48.70
2017-08-22T20:45:07.477Z,49.10
2017-08-22T20:47:35.116Z,49.30
2017-08-22T20:50:02.772Z,49.30
2017-08-22T20:52:30.486Z,48.90
2017-08-22T20:54:58.559Z,48.80
2017-08-22T20:57:26.216Z,48.50
2017-08-22T20:59:54.653Z,48.60
2017-08-22T21:02:22.674Z,48.50
2017-08-22T21:04:50.341Z,48.20
2017-08-22T21:07:17.988Z,48.40
2017-08-22T21:09:46.260Z,48.40
2017-08-22T21:12:14.357Z,48.20
2017-08-22T21:14:41.996Z,48.10
2017-08-22T21:17:09.976Z,48.30
2017-08-22T21:19:38.388Z,48.70
2017-08-22T21:22:06.049Z,48.60
2017-08-22T21:24:34.121Z,48.80
2017-08-22T21:27:01.767Z,49.00
2017-08-22T21:29:29.435Z,49.00
2017-08-22T21:31:57.504Z,49.00
2017-08-22T21:34:25.162Z,49.10
2017-08-22T21:36:53.033Z,49.20
2017-08-22T21:39:21.197Z,49.20
2017-08-22T21:41:48.856Z,49.20
2017-08-22T21:44:16.491Z,49.50
2017-08-22T21:46:44.476Z,49.70
2017-08-22T21:49:12.154Z,49.80
2017-08-22T21:51:39.809Z,49.70
2017-08-22T21:54:07.816Z,49.60
2017-08-22T21:56:35.471Z,49.70
2017-08-22T21:59:03.120Z,49.80
2017-08-22T22:01:31.189Z,49.90
2017-08-22T22:03:58.818Z,50.00
2017-08-22T22:06:26.475Z,50.10
2017-08-22T22:08:54.471Z,50.40
2017-08-22T22:11:22.133Z,50.40
2017-08-22T22:13:49.838Z,49.80
2017-08-22T22:16:17.836Z,50.20
2017-08-22T22:18:45.494Z,50.40
2017-08-22T22:21:13.139Z,50.00
2017-08-22T22:23:41.191Z,50.50
2017-08-22T22:26:08.882Z,50.90
2017-08-22T22:28:36.522Z,51.00
